• Join FlightAware (Why Join?)
  • Login
  • US Flag 
05:47PM EDT


 

Airport Tracker/Info


-or-


 

Live Flight TrackerFlight Track Log ✈ SWA8500 ✈ 19-Jun-2013 ✈ KPAE - KPHX

Flight Track Log - Related Links

Times and Time Zones

All times are in EDT time to prevent confusion due to time zone crossing. See the SWA8500 flight status page for this flight to view local times or setup timezone preferences in your user account.

Time Position Orientation Groundspeed Altitude Reporting Facility
EDT Latitude Longitude Course Direction KTS MPH feet Rate Location/Type
08:33PM 47.9739 -122.2156 154° Southeast 245 282 5,000  Level Seattle Center
08:34PM 47.9222 -122.1783 154° Southeast 230 265 5,600 1,860 Climbing Seattle Center
08:35PM 47.8531 -122.1342 157° South 287 330 8,700 2,940 Climbing Seattle Center
08:37PM 47.7400 -122.1211 176° South 320 368 12,700 3,000 Climbing Seattle Center
08:38PM 47.6328 -122.1094 176° South 362 417 15,900 2,580 Climbing Seattle Center
08:39PM 47.5447 -122.0917 172° South 378 435 18,000 2,400 Climbing Seattle Center
08:40PM 47.4486 -122.0183 153° Southeast 390 449 20,800 2,700 Climbing Seattle Center
08:41PM 47.3317 -121.9250 152° Southeast 399 459 23,600 2,520 Climbing Seattle Center
08:42PM 47.2336 -121.8500 153° Southeast 401 461 26,000 2,760 Climbing Seattle Center
08:43PM 47.1378 -121.7753 152° Southeast 397 457 29,300 2,700 Climbing Seattle Center
08:44PM 47.0525 -121.7081 152° Southeast 359 413 31,600 1,620 Climbing Seattle Center
08:45PM 46.9631 -121.6397 152° Southeast 363 418 32,700 1,080 Climbing Seattle Center
08:46PM 46.8656 -121.5639 152° Southeast 383 441 33,900 1,140 Climbing Seattle Center
08:47PM 46.7681 -121.4886 152° Southeast 395 455 35,100 1,260 Climbing Seattle Center
08:48PM 46.6678 -121.4117 152° Southeast 405 466 36,500 900 Climbing Seattle Center
08:49PM 46.5667 -121.3336 152° Southeast 411 473 37,000 240 Climbing Seattle Center
08:50PM 46.4633 -121.2553 152° Southeast 418 481 37,000  Level Seattle Center
08:51PM 46.3600 -121.1739 151° Southeast 423 487 37,000  Level Seattle Center
08:52PM 46.2556 -121.0972 153° Southeast 422 486 37,000  Level Seattle Center
08:53PM 46.1300 -121.0017 152° Southeast 426 490 37,000  Level Seattle Center
08:54PM 46.0258 -120.9239 153° Southeast 425 489 37,000  Level Seattle Center
08:55PM 45.9203 -120.8444 152° Southeast 428 493 37,000  Level Seattle Center
08:56PM 45.8150 -120.7681 153° Southeast 427 491 37,000  Level Seattle Center
08:58PM 45.6039 -120.6125 153° Southeast 428 493 37,000  Level Seattle Center
08:59PM 45.4975 -120.5339 153° Southeast 431 496 37,000  Level Seattle Center
09:00PM 45.3914 -120.4561 153° Southeast 430 495 37,000  Level Seattle Center
09:01PM 45.2844 -120.3792 153° Southeast 432 497 37,000  Level Seattle Center
09:02PM 45.1761 -120.3011 153° Southeast 437 503 37,000  Level Seattle Center
09:03PM 45.0694 -120.2233 153° Southeast 435 501 37,000  Level Seattle Center
09:04PM 44.9425 -120.1322 153° Southeast 436 502 37,000  Level Seattle Center
09:05PM 44.8372 -120.0567 153° Southeast 437 503 37,000  Level Seattle Center
09:06PM 44.7294 -119.9808 153° Southeast 439 505 37,000  Level Seattle Center
09:07PM 44.6208 -119.9036 153° Southeast 440 506 37,000  Level Seattle Center
09:08PM 44.5111 -119.8258 153° Southeast 443 510 37,000  Level Seattle Center
09:09PM 44.4019 -119.7483 153° Southeast 442 509 37,000  Level Seattle Center
09:10PM 44.2922 -119.6706 153° Southeast 443 510 37,000  Level Seattle Center
09:11PM 44.1797 -119.5983 155° Southeast 444 511 37,000  Level Seattle Center
09:12PM 44.0461 -119.5042 153° Southeast 448 516 37,000  Level Seattle Center
09:13PM 43.9339 -119.4281 154° Southeast 450 518 37,000  Level Seattle Center
09:14PM 43.8222 -119.3503 153° Southeast 449 517 37,000  Level Seattle Center
09:15PM 43.7094 -119.2728 154° Southeast 451 519 37,000  Level Seattle Center
09:16PM 43.5964 -119.1967 154° Southeast 452 520 37,000  Level Seattle Center
09:17PM 43.4844 -119.1192 153° Southeast 450 518 37,000  Level Seattle Center
09:18PM 43.3700 -119.0425 154° Southeast 456 525 37,000  Level Seattle Center
09:19PM 43.2586 -118.9681 154° Southeast 448 516 37,000  Level Seattle Center
09:20PM 43.1464 -118.8933 154° Southeast 447 514 37,000  Level Seattle Center
09:21PM 43.0353 -118.8131 152° Southeast 450 518 37,000  Level Salt Lake Center
09:22PM 42.9231 -118.7383 154° Southeast 450 518 37,000  Level Salt Lake Center
09:23PM 42.8108 -118.6628 154° Southeast 450 518 37,000  Level Salt Lake Center
09:24PM 42.6983 -118.5867 154° Southeast 451 519 37,000  Level Salt Lake Center
09:25PM 42.5853 -118.5136 155° Southeast 451 519 37,000  Level Salt Lake Center
09:26PM 42.4706 -118.4394 155° Southeast 456 525 37,000  Level Salt Lake Center
09:27PM 42.3472 -118.3625 155° Southeast 459 528 37,000  Level Salt Lake Center
09:28PM 42.2175 -118.2769 154° Southeast 462 532 37,000  Level Salt Lake Center
09:29PM 42.1225 -118.1692 140° Southeast 462 532 37,000  Level Salt Lake Center
09:30PM 42.0150 -118.0325 137° Southeast 478 550 37,000  Level Salt Lake Center
09:32PM 41.9239 -117.9211 138° Southeast 467 537 37,000  Level Salt Lake Center
09:33PM 41.8322 -117.8133 139° Southeast 459 528 37,000  Level Salt Lake Center
09:34PM 41.7253 -117.6786 137° Southeast 469 540 37,000  Level Salt Lake Center
09:35PM 41.6342 -117.5694 138° Southeast 463 533 37,000  Level Salt Lake Center
09:36PM 41.5256 -117.4403 138° Southeast 465 535 37,000  Level Salt Lake Center
09:37PM 41.4331 -117.3297 138° Southeast 467 537 37,000  Level Salt Lake Center
09:38PM 41.3247 -117.1986 138° Southeast 469 540 37,000  Level Salt Lake Center
09:39PM 41.2319 -117.0881 138° Southeast 468 539 37,000  Level Salt Lake Center
09:40PM 41.1369 -116.9775 139° Southeast 470 541 37,000  Level Salt Lake Center
09:41PM 41.0286 -116.8486 138° Southeast 468 539 37,000  Level Salt Lake Center
09:42PM 40.9356 -116.7389 138° Southeast 466 536 37,000  Level Salt Lake Center
09:43PM 40.8253 -116.6094 138° Southeast 471 542 37,000  Level Salt Lake Center
09:44PM 40.7317 -116.4989 138° Southeast 468 539 37,000  Level Salt Lake Center
09:45PM 40.6356 -116.3886 139° Southeast 472 543 37,000  Level Salt Lake Center
09:46PM 40.5244 -116.2614 139° Southeast 472 543 37,000  Level Salt Lake Center
09:47PM 40.4306 -116.1511 138° Southeast 470 541 37,000  Level Salt Lake Center
09:48PM 40.3197 -116.0247 139° Southeast 470 541 37,000  Level Salt Lake Center
09:49PM 40.2258 -115.9189 139° Southeast 464 534 37,000  Level Salt Lake Center
09:50PM 40.1342 -115.8100 138° Southeast 463 533 37,000  Level Salt Lake Center
09:51PM 40.0242 -115.6856 139° Southeast 466 536 37,000  Level Salt Lake Center
09:52PM 39.9275 -115.5794 140° Southeast 471 542 37,000  Level Salt Lake Center
09:53PM 39.8164 -115.4567 140° Southeast 467 537 37,000  Level Salt Lake Center
09:54PM 39.7267 -115.3506 138° Southeast 462 532 37,000  Level Salt Lake Center
09:55PM 39.6319 -115.2461 140° Southeast 464 534 37,000  Level Salt Lake Center
09:56PM 39.5222 -115.1242 139° Southeast 465 535 37,000  Level Salt Lake Center
09:57PM 39.4275 -115.0197 140° Southeast 467 537 37,000  Level Salt Lake Center
09:58PM 39.3144 -114.9006 141° Southeast 468 539 37,000  Level Salt Lake Center
09:59PM 39.2197 -114.7975 140° Southeast 465 535 37,000  Level Salt Lake Center
10:00PM 39.1119 -114.6744 138° Southeast 460 529 37,000  Level Salt Lake Center
10:01PM 39.0150 -114.5692 140° Southeast 457 526 37,000  Level Salt Lake Center
10:02PM 38.9192 -114.4661 140° Southeast 452 520 37,000  Level Salt Lake Center
10:03PM 38.8242 -114.3614 139° Southeast 451 519 37,000  Level Salt Lake Center
10:04PM 38.7281 -114.2594 140° Southeast 449 517 37,000  Level Salt Lake Center
10:05PM 38.6333 -114.1581 140° Southeast 445 512 37,000  Level Salt Lake Center
10:06PM 38.5386 -114.0572 140° Southeast 443 510 37,000  Level Salt Lake Center
10:07PM 38.4256 -113.9369 140° Southeast 443 510 37,000  Level Salt Lake Center
10:09PM 38.3300 -113.8364 140° Southeast 446 513 37,000  Level Salt Lake Center
10:10PM 38.2350 -113.7353 140° Southeast 446 513 37,000  Level Salt Lake Center
10:11PM 38.1386 -113.6361 141° Southeast 446 513 37,000  Level Salt Lake Center
10:12PM 38.0419 -113.5358 141° Southeast 448 516 37,000  Level Salt Lake Center
10:13PM 37.9464 -113.4356 140° Southeast 448 516 37,000  Level Salt Lake Center
10:14PM 37.8411 -113.3686 153° Southeast 431 496 37,000  Level Salt Lake Center
10:15PM 37.7075 -113.3303 167° South 415 478 37,000  Level Salt Lake Center
10:16PM 37.5972 -113.2978 167° South 412 474 37,000  Level Salt Lake Center
10:17PM 37.4864 -113.2647 167° South 413 475 37,000 -360 Level Salt Lake Center
10:18PM 37.3783 -113.2331 167° South 407 468 36,300 -840 Descending Salt Lake Center
10:18PM 37.2914 -113.2067 166° South 404 465 35,600 -960 Descending Los Angeles Center
10:20PM 37.1786 -113.1736 167° South 417 480 34,700 -900 Descending Los Angeles Center
10:21PM 37.0642 -113.1397 167° South 423 487 33,800 -840 Descending Los Angeles Center
10:22PM 36.9483 -113.1064 167° South 427 491 33,000 -420 Descending Los Angeles Center
10:23PM 36.8325 -113.0731 167° South 428 493 33,000  Level Los Angeles Center
10:24PM 36.7161 -113.0397 167° South 429 494 33,000 -120 Level Los Angeles Center
10:25PM 36.5764 -112.9994 167° South 431 496 32,800 -600 Descending Los Angeles Center
10:26PM 36.4333 -112.9608 168° South 438 504 31,700 -1,020 Descending Los Angeles Center
10:27PM 36.3133 -112.9261 167° South 442 509 30,700 -1,080 Descending Los Angeles Center
10:28PM 36.1972 -112.8928 167° South 432 497 29,600 -840 Descending Los Angeles Center
10:29PM 36.0833 -112.8614 167° South 421 484 29,000 -300 Descending Los Angeles Center
10:30PM 35.9714 -112.8292 167° South 414 476 29,000  Level Los Angeles Center
10:31PM 35.8503 -112.7958 167° South 401 461 29,000  Level Los Angeles Center
10:32PM 35.7417 -112.7664 168° South 399 459 29,000  Level Los Angeles Center
10:33PM 35.6203 -112.7314 167° South 411 473 29,000  Level Los Angeles Center
10:34PM 35.5006 -112.6978 167° South 435 501 29,000  Level Los Angeles Center
10:35PM 35.3783 -112.6644 167° South 447 514 29,000  Level Los Angeles Center
10:36PM 35.2897 -112.6411 168° South 442 509 29,000  Level Albuquerque Center
10:37PM 35.1736 -112.6086 167° South 430 495 29,000  Level Albuquerque Center
10:38PM 35.0594 -112.5775 167° South 422 486 29,000  Level Albuquerque Center
10:39PM 34.9464 -112.5469 168° South 418 481 29,000 -60 Level Albuquerque Center
10:40PM 34.8356 -112.5175 168° South 412 474 28,900 -1,740 Descending Albuquerque Center
10:41PM 34.7233 -112.4853 167° South 414 476 25,500 -1,920 Descending Albuquerque Center
10:42PM 34.6289 -112.4100 147° Southeast 410 472 25,000 -1,620 Descending Albuquerque Center
10:43PM 34.5322 -112.3144 141° Southeast 404 465 22,200 -2,460 Descending Albuquerque Center
10:44PM 34.4472 -112.2333 142° Southeast 395 455 20,000 -1,380 Descending Albuquerque Center
10:45PM 34.3500 -112.2042 166° South 366 421 19,400 -1,680 Descending Albuquerque Center
10:46PM 34.2564 -112.1836 170° South 350 403 16,600 -2,880 Descending Albuquerque Center
10:47PM 34.1586 -112.1550 166° South 361 415 13,500 -1,920 Descending Albuquerque Center
10:48PM 34.0475 -112.1258 168° South 344 396 12,700 -900 Descending Albuquerque Center
10:49PM 33.9653 -112.1050 168° South 309 356 11,700 -1,020 Descending Albuquerque Center
10:50PM 33.8803 -112.0839 168° South 314 361 10,700 -900 Descending Albuquerque Center
10:51PM 33.8019 -112.0650 169° South 293 337 9,900 -360 Descending Albuquerque Center
10:52PM 33.7294 -112.0469 168° South 271 312 10,000 -120 Climbing Albuquerque Center
10:53PM 33.6542 -112.0350 172° South 275 316 9,700 -660 Descending Albuquerque Center
10:54PM 33.5664 -112.0119 168° South 277 319 8,700 -960 Descending Albuquerque Center
10:55PM 33.5333 -111.9333 117° Southeast 289 333 7,800 -960 Descending Phoenix TRACON
10:56PM 33.5333 -111.8500 90° East 273 314 6,800 -840 Descending Phoenix TRACON
10:57PM 33.4833 -111.8000 140° Southeast 206 237 6,200 -1,140 Descending Phoenix TRACON
10:58PM 33.4500 -111.8333 220° Southwest 171 197 4,600 -1,560 Descending Phoenix TRACON
10:59PM 33.4333 -111.8833 248° West 162 186 3,100 -1,200 Descending Phoenix TRACON
11:00PM 33.4333 -111.9167 270° West 134 154 2,200 -780 Descending Phoenix TRACON
11:01PM 33.4333 -111.9667 270° West 121 139 1,500 -660 Descending Phoenix TRACON